sensor_id;sensor_type;location;lat;lon;timestamp;P1;durP1;ratioP1;P2;durP2;ratioP2
18104;SDS011;9179;50.968;3.134;2023-04-24T00:00:53;8.52;;;7.43;;
18104;SDS011;9179;50.968;3.134;2023-04-24T00:03:21;6.80;;;6.20;;
18104;SDS011;9179;50.968;3.134;2023-04-24T00:05:48;7.10;;;6.50;;
18104;SDS011;9179;50.968;3.134;2023-04-24T00:08:16;6.57;;;6.07;;
18104;SDS011;9179;50.968;3.134;2023-04-24T00:10:43;7.28;;;6.20;;
18104;SDS011;9179;50.968;3.134;2023-04-24T00:13:11;6.57;;;6.05;;
18104;SDS011;9179;50.968;3.134;2023-04-24T00:15:38;6.30;;;5.72;;
18104;SDS011;9179;50.968;3.134;2023-04-24T00:18:05;7.25;;;5.97;;
18104;SDS011;9179;50.968;3.134;2023-04-24T00:20:32;6.25;;;5.72;;
18104;SDS011;9179;50.968;3.134;2023-04-24T00:23:01;6.00;;;5.47;;
18104;SDS011;9179;50.968;3.134;2023-04-24T00:25:28;6.45;;;5.85;;
18104;SDS011;9179;50.968;3.134;2023-04-24T00:27:55;5.88;;;5.32;;
18104;SDS011;9179;50.968;3.134;2023-04-24T00:30:23;6.78;;;6.28;;
18104;SDS011;9179;50.968;3.134;2023-04-24T00:32:50;6.25;;;5.65;;
18104;SDS011;9179;50.968;3.134;2023-04-24T00:35:17;7.28;;;6.57;;
18104;SDS011;9179;50.968;3.134;2023-04-24T00:37:45;7.15;;;6.55;;
18104;SDS011;9179;50.968;3.134;2023-04-24T00:40:12;6.88;;;6.18;;
18104;SDS011;9179;50.968;3.134;2023-04-24T00:42:39;8.18;;;7.28;;
18104;SDS011;9179;50.968;3.134;2023-04-24T00:45:07;7.65;;;7.00;;
18104;SDS011;9179;50.968;3.134;2023-04-24T00:47:35;8.73;;;7.68;;
18104;SDS011;9179;50.968;3.134;2023-04-24T00:50:03;10.52;;;9.55;;
18104;SDS011;9179;50.968;3.134;2023-04-24T00:52:31;11.02;;;10.02;;
18104;SDS011;9179;50.968;3.134;2023-04-24T00:54:58;11.15;;;10.15;;
18104;SDS011;9179;50.968;3.134;2023-04-24T00:57:25;11.38;;;10.27;;
18104;SDS011;9179;50.968;3.134;2023-04-24T00:59:53;11.68;;;10.55;;
18104;SDS011;9179;50.968;3.134;2023-04-24T01:02:20;11.57;;;10.40;;
18104;SDS011;9179;50.968;3.134;2023-04-24T01:04:50;11.95;;;10.77;;
18104;SDS011;9179;50.968;3.134;2023-04-24T01:07:18;14.05;;;12.60;;
18104;SDS011;9179;50.968;3.134;2023-04-24T01:09:46;12.23;;;11.13;;
18104;SDS011;9179;50.968;3.134;2023-04-24T01:12:16;12.13;;;10.93;;
18104;SDS011;9179;50.968;3.134;2023-04-24T01:14:43;12.20;;;11.00;;
18104;SDS011;9179;50.968;3.134;2023-04-24T01:17:10;11.85;;;10.65;;
18104;SDS011;9179;50.968;3.134;2023-04-24T01:19:38;12.95;;;11.65;;
18104;SDS011;9179;50.968;3.134;2023-04-24T01:22:09;12.55;;;11.35;;
18104;SDS011;9179;50.968;3.134;2023-04-24T01:24:37;13.95;;;12.65;;
18104;SDS011;9179;50.968;3.134;2023-04-24T01:27:05;12.30;;;11.10;;
18104;SDS011;9179;50.968;3.134;2023-04-24T01:29:32;13.18;;;11.88;;
18104;SDS011;9179;50.968;3.134;2023-04-24T01:32:00;11.52;;;10.38;;
18104;SDS011;9179;50.968;3.134;2023-04-24T01:34:27;12.95;;;11.77;;
18104;SDS011;9179;50.968;3.134;2023-04-24T01:36:54;11.63;;;10.18;;
18104;SDS011;9179;50.968;3.134;2023-04-24T01:39:23;12.75;;;11.57;;
18104;SDS011;9179;50.968;3.134;2023-04-24T01:41:50;12.65;;;11.55;;
18104;SDS011;9179;50.968;3.134;2023-04-24T01:44:18;12.23;;;11.13;;
18104;SDS011;9179;50.968;3.134;2023-04-24T01:46:45;11.50;;;10.18;;
18104;SDS011;9179;50.968;3.134;2023-04-24T01:49:12;12.80;;;11.60;;
18104;SDS011;9179;50.968;3.134;2023-04-24T01:51:39;11.70;;;10.40;;
18104;SDS011;9179;50.968;3.134;2023-04-24T01:54:06;9.45;;;8.00;;
18104;SDS011;9179;50.968;3.134;2023-04-24T01:56:35;10.02;;;9.02;;
18104;SDS011;9179;50.968;3.134;2023-04-24T01:59:06;13.00;;;10.52;;
18104;SDS011;9179;50.968;3.134;2023-04-24T02:01:35;11.48;;;10.25;;
18104;SDS011;9179;50.968;3.134;2023-04-24T02:04:03;12.38;;;8.93;;
18104;SDS011;9179;50.968;3.134;2023-04-24T02:06:30;9.65;;;8.65;;
18104;SDS011;9179;50.968;3.134;2023-04-24T02:08:57;8.90;;;8.00;;
18104;SDS011;9179;50.968;3.134;2023-04-24T02:11:25;7.63;;;6.82;;
18104;SDS011;9179;50.968;3.134;2023-04-24T02:13:53;7.57;;;5.05;;
18104;SDS011;9179;50.968;3.134;2023-04-24T02:16:20;5.65;;;4.82;;
18104;SDS011;9179;50.968;3.134;2023-04-24T02:18:47;9.75;;;5.10;;
18104;SDS011;9179;50.968;3.134;2023-04-24T02:21:14;5.40;;;4.50;;
18104;SDS011;9179;50.968;3.134;2023-04-24T02:23:41;5.97;;;5.20;;
18104;SDS011;9179;50.968;3.134;2023-04-24T02:26:08;5.50;;;5.00;;
18104;SDS011;9179;50.968;3.134;2023-04-24T02:28:35;4.65;;;4.15;;
18104;SDS011;9179;50.968;3.134;2023-04-24T02:31:04;7.13;;;5.57;;
18104;SDS011;9179;50.968;3.134;2023-04-24T02:33:31;7.25;;;5.47;;
18104;SDS011;9179;50.968;3.134;2023-04-24T02:35:58;6.05;;;4.60;;
18104;SDS011;9179;50.968;3.134;2023-04-24T02:38:25;6.40;;;4.43;;
18104;SDS011;9179;50.968;3.134;2023-04-24T02:40:52;5.65;;;5.15;;
18104;SDS011;9179;50.968;3.134;2023-04-24T02:43:19;7.28;;;5.15;;
18104;SDS011;9179;50.968;3.134;2023-04-24T02:45:46;8.40;;;7.00;;
18104;SDS011;9179;50.968;3.134;2023-04-24T02:48:15;7.95;;;7.05;;
18104;SDS011;9179;50.968;3.134;2023-04-24T02:50:42;9.73;;;8.13;;
18104;SDS011;9179;50.968;3.134;2023-04-24T02:53:09;10.93;;;9.82;;
18104;SDS011;9179;50.968;3.134;2023-04-24T02:55:36;15.55;;;11.68;;
18104;SDS011;9179;50.968;3.134;2023-04-24T02:58:03;14.70;;;10.20;;
18104;SDS011;9179;50.968;3.134;2023-04-24T03:00:31;12.63;;;10.40;;
18104;SDS011;9179;50.968;3.134;2023-04-24T03:02:58;13.35;;;12.05;;
18104;SDS011;9179;50.968;3.134;2023-04-24T03:05:26;12.00;;;10.77;;
18104;SDS011;9179;50.968;3.134;2023-04-24T03:07:53;14.00;;;11.52;;
18104;SDS011;9179;50.968;3.134;2023-04-24T03:10:20;13.55;;;11.40;;
18104;SDS011;9179;50.968;3.134;2023-04-24T03:12:48;12.68;;;10.93;;
18104;SDS011;9179;50.968;3.134;2023-04-24T03:15:15;13.45;;;11.50;;
18104;SDS011;9179;50.968;3.134;2023-04-24T03:17:42;12.02;;;10.82;;
18104;SDS011;9179;50.968;3.134;2023-04-24T03:20:09;14.32;;;11.35;;
18104;SDS011;9179;50.968;3.134;2023-04-24T03:22:38;14.13;;;11.02;;
18104;SDS011;9179;50.968;3.134;2023-04-24T03:25:05;12.90;;;11.52;;
18104;SDS011;9179;50.968;3.134;2023-04-24T03:27:34;16.67;;;12.70;;
18104;SDS011;9179;50.968;3.134;2023-04-24T03:30:01;16.02;;;11.95;;
18104;SDS011;9179;50.968;3.134;2023-04-24T03:32:28;12.55;;;11.23;;
18104;SDS011;9179;50.968;3.134;2023-04-24T03:34:57;14.40;;;10.60;;
18104;SDS011;9179;50.968;3.134;2023-04-24T03:37:24;13.35;;;12.05;;
18104;SDS011;9179;50.968;3.134;2023-04-24T03:39:52;13.80;;;10.27;;
18104;SDS011;9179;50.968;3.134;2023-04-24T03:42:20;12.25;;;10.23;;
18104;SDS011;9179;50.968;3.134;2023-04-24T03:44:46;10.35;;;9.30;;
18104;SDS011;9179;50.968;3.134;2023-04-24T03:47:13;11.85;;;10.18;;
18104;SDS011;9179;50.968;3.134;2023-04-24T03:49:40;11.90;;;10.68;;
18104;SDS011;9179;50.968;3.134;2023-04-24T03:52:07;12.02;;;10.07;;
18104;SDS011;9179;50.968;3.134;2023-04-24T03:54:34;11.27;;;10.15;;
18104;SDS011;9179;50.968;3.134;2023-04-24T03:57:03;15.60;;;10.57;;
18104;SDS011;9179;50.968;3.134;2023-04-24T03:59:30;11.30;;;9.98;;
18104;SDS011;9179;50.968;3.134;2023-04-24T04:01:57;13.18;;;11.70;;
18104;SDS011;9179;50.968;3.134;2023-04-24T04:04:23;11.43;;;10.00;;
18104;SDS011;9179;50.968;3.134;2023-04-24T04:06:51;11.07;;;9.55;;
18104;SDS011;9179;50.968;3.134;2023-04-24T04:09:18;13.68;;;9.75;;
18104;SDS011;9179;50.968;3.134;2023-04-24T04:11:45;14.00;;;11.05;;
18104;SDS011;9179;50.968;3.134;2023-04-24T04:14:13;12.07;;;10.15;;
18104;SDS011;9179;50.968;3.134;2023-04-24T04:16:40;11.95;;;10.48;;
18104;SDS011;9179;50.968;3.134;2023-04-24T04:19:08;12.57;;;9.82;;
18104;SDS011;9179;50.968;3.134;2023-04-24T04:21:35;15.45;;;11.88;;
18104;SDS011;9179;50.968;3.134;2023-04-24T04:24:02;11.35;;;9.80;;
18104;SDS011;9179;50.968;3.134;2023-04-24T04:26:30;15.90;;;12.38;;
18104;SDS011;9179;50.968;3.134;2023-04-24T04:28:57;12.25;;;10.88;;
18104;SDS011;9179;50.968;3.134;2023-04-24T04:31:27;15.65;;;10.80;;
18104;SDS011;9179;50.968;3.134;2023-04-24T04:33:53;13.52;;;10.93;;
18104;SDS011;9179;50.968;3.134;2023-04-24T04:36:20;13.52;;;11.75;;
18104;SDS011;9179;50.968;3.134;2023-04-24T04:38:48;15.13;;;12.90;;
18104;SDS011;9179;50.968;3.134;2023-04-24T04:41:15;13.32;;;11.57;;
18104;SDS011;9179;50.968;3.134;2023-04-24T04:43:43;14.05;;;11.77;;
18104;SDS011;9179;50.968;3.134;2023-04-24T04:46:11;13.30;;;12.05;;
18104;SDS011;9179;50.968;3.134;2023-04-24T04:48:39;14.02;;;11.07;;
18104;SDS011;9179;50.968;3.134;2023-04-24T04:51:06;13.18;;;11.88;;
18104;SDS011;9179;50.968;3.134;2023-04-24T04:53:33;14.27;;;11.15;;
18104;SDS011;9179;50.968;3.134;2023-04-24T04:56:01;14.50;;;11.90;;
18104;SDS011;9179;50.968;3.134;2023-04-24T04:58:28;19.90;;;13.68;;
18104;SDS011;9179;50.968;3.134;2023-04-24T05:00:55;17.38;;;12.20;;
18104;SDS011;9179;50.968;3.134;2023-04-24T05:03:23;14.13;;;12.70;;
18104;SDS011;9179;50.968;3.134;2023-04-24T05:05:51;14.50;;;12.90;;
18104;SDS011;9179;50.968;3.134;2023-04-24T05:08:18;12.27;;;11.02;;
18104;SDS011;9179;50.968;3.134;2023-04-24T05:10:45;16.13;;;14.48;;
18104;SDS011;9179;50.968;3.134;2023-04-24T05:13:12;15.57;;;13.68;;
18104;SDS011;9179;50.968;3.134;2023-04-24T05:15:40;16.02;;;12.77;;
18104;SDS011;9179;50.968;3.134;2023-04-24T05:18:07;19.27;;;13.32;;
18104;SDS011;9179;50.968;3.134;2023-04-24T05:20:34;15.02;;;12.75;;
18104;SDS011;9179;50.968;3.134;2023-04-24T05:23:02;18.52;;;14.45;;
18104;SDS011;9179;50.968;3.134;2023-04-24T05:25:29;17.95;;;13.70;;
18104;SDS011;9179;50.968;3.134;2023-04-24T05:28:01;20.23;;;13.45;;
18104;SDS011;9179;50.968;3.134;2023-04-24T05:30:28;14.60;;;11.98;;
18104;SDS011;9179;50.968;3.134;2023-04-24T05:32:55;17.25;;;13.75;;
18104;SDS011;9179;50.968;3.134;2023-04-24T05:35:22;17.48;;;13.50;;
18104;SDS011;9179;50.968;3.134;2023-04-24T05:37:49;17.80;;;12.25;;
18104;SDS011;9179;50.968;3.134;2023-04-24T05:40:17;12.73;;;11.43;;
18104;SDS011;9179;50.968;3.134;2023-04-24T05:42:44;18.15;;;11.82;;
18104;SDS011;9179;50.968;3.134;2023-04-24T05:45:11;14.82;;;11.45;;
18104;SDS011;9179;50.968;3.134;2023-04-24T05:47:41;15.75;;;11.18;;
18104;SDS011;9179;50.968;3.134;2023-04-24T05:50:09;15.85;;;11.02;;
18104;SDS011;9179;50.968;3.134;2023-04-24T05:52:36;13.68;;;11.15;;
18104;SDS011;9179;50.968;3.134;2023-04-24T05:55:03;11.43;;;10.20;;
18104;SDS011;9179;50.968;3.134;2023-04-24T05:57:32;13.52;;;10.35;;
18104;SDS011;9179;50.968;3.134;2023-04-24T05:59:59;18.42;;;12.52;;
18104;SDS011;9179;50.968;3.134;2023-04-24T06:02:26;13.65;;;9.55;;
18104;SDS011;9179;50.968;3.134;2023-04-24T06:04:57;11.52;;;9.98;;
18104;SDS011;9179;50.968;3.134;2023-04-24T06:07:24;11.80;;;9.48;;
18104;SDS011;9179;50.968;3.134;2023-04-24T06:09:52;13.32;;;9.18;;
18104;SDS011;9179;50.968;3.134;2023-04-24T06:12:19;11.43;;;9.90;;
18104;SDS011;9179;50.968;3.134;2023-04-24T06:14:47;14.27;;;9.75;;
18104;SDS011;9179;50.968;3.134;2023-04-24T06:17:15;15.68;;;10.07;;
18104;SDS011;9179;50.968;3.134;2023-04-24T06:19:42;11.15;;;9.95;;
18104;SDS011;9179;50.968;3.134;2023-04-24T06:22:09;11.95;;;9.57;;
18104;SDS011;9179;50.968;3.134;2023-04-24T06:24:36;14.23;;;9.65;;
18104;SDS011;9179;50.968;3.134;2023-04-24T06:27:03;12.55;;;9.55;;
18104;SDS011;9179;50.968;3.134;2023-04-24T06:29:30;12.40;;;9.38;;
18104;SDS011;9179;50.968;3.134;2023-04-24T06:31:58;11.60;;;8.60;;
18104;SDS011;9179;50.968;3.134;2023-04-24T06:34:25;12.38;;;8.75;;
18104;SDS011;9179;50.968;3.134;2023-04-24T06:36:52;12.95;;;8.10;;
18104;SDS011;9179;50.968;3.134;2023-04-24T06:39:19;12.75;;;9.00;;
18104;SDS011;9179;50.968;3.134;2023-04-24T06:41:46;9.38;;;8.15;;
18104;SDS011;9179;50.968;3.134;2023-04-24T06:44:13;10.88;;;8.02;;
18104;SDS011;9179;50.968;3.134;2023-04-24T06:46:40;10.40;;;7.90;;
18104;SDS011;9179;50.968;3.134;2023-04-24T06:49:09;10.45;;;7.93;;
18104;SDS011;9179;50.968;3.134;2023-04-24T06:51:36;11.82;;;8.18;;
18104;SDS011;9179;50.968;3.134;2023-04-24T06:54:03;11.23;;;7.43;;
18104;SDS011;9179;50.968;3.134;2023-04-24T06:56:30;14.13;;;7.97;;
18104;SDS011;9179;50.968;3.134;2023-04-24T06:58:59;12.98;;;7.63;;
18104;SDS011;9179;50.968;3.134;2023-04-24T07:01:26;10.65;;;6.07;;
18104;SDS011;9179;50.968;3.134;2023-04-24T07:03:53;7.28;;;5.93;;
18104;SDS011;9179;50.968;3.134;2023-04-24T07:06:21;8.65;;;6.13;;
18104;SDS011;9179;50.968;3.134;2023-04-24T07:08:49;6.28;;;5.60;;
18104;SDS011;9179;50.968;3.134;2023-04-24T07:11:16;8.30;;;5.43;;
18104;SDS011;9179;50.968;3.134;2023-04-24T07:13:43;7.88;;;5.63;;
18104;SDS011;9179;50.968;3.134;2023-04-24T07:16:10;7.18;;;4.70;;
18104;SDS011;9179;50.968;3.134;2023-04-24T07:18:37;10.10;;;5.05;;
18104;SDS011;9179;50.968;3.134;2023-04-24T07:21:04;6.68;;;5.03;;
18104;SDS011;9179;50.968;3.134;2023-04-24T07:23:33;7.50;;;4.82;;
18104;SDS011;9179;50.968;3.134;2023-04-24T07:26:00;6.95;;;4.18;;
18104;SDS011;9179;50.968;3.134;2023-04-24T07:28:27;9.68;;;5.05;;
18104;SDS011;9179;50.968;3.134;2023-04-24T07:30:56;5.32;;;4.57;;
18104;SDS011;9179;50.968;3.134;2023-04-24T07:33:23;10.65;;;5.47;;
18104;SDS011;9179;50.968;3.134;2023-04-24T07:35:50;11.93;;;5.53;;
18104;SDS011;9179;50.968;3.134;2023-04-24T07:38:18;7.82;;;4.65;;
18104;SDS011;9179;50.968;3.134;2023-04-24T07:40:48;9.80;;;4.85;;
18104;SDS011;9179;50.968;3.134;2023-04-24T07:43:15;11.07;;;5.30;;
18104;SDS011;9179;50.968;3.134;2023-04-24T07:45:42;11.00;;;5.53;;
18104;SDS011;9179;50.968;3.134;2023-04-24T07:48:10;7.35;;;4.57;;
18104;SDS011;9179;50.968;3.134;2023-04-24T07:50:38;6.88;;;4.93;;
18104;SDS011;9179;50.968;3.134;2023-04-24T07:53:05;6.20;;;4.72;;
18104;SDS011;9179;50.968;3.134;2023-04-24T07:55:32;8.68;;;4.45;;
18104;SDS011;9179;50.968;3.134;2023-04-24T07:58:01;6.82;;;4.50;;
18104;SDS011;9179;50.968;3.134;2023-04-24T08:00:28;6.32;;;4.25;;
18104;SDS011;9179;50.968;3.134;2023-04-24T08:02:55;4.55;;;4.15;;
18104;SDS011;9179;50.968;3.134;2023-04-24T08:05:22;10.65;;;4.60;;
18104;SDS011;9179;50.968;3.134;2023-04-24T08:07:50;4.90;;;4.40;;
18104;SDS011;9179;50.968;3.134;2023-04-24T08:10:17;6.47;;;4.47;;
18104;SDS011;9179;50.968;3.134;2023-04-24T08:12:44;6.75;;;5.18;;
18104;SDS011;9179;50.968;3.134;2023-04-24T08:15:12;6.97;;;4.82;;
18104;SDS011;9179;50.968;3.134;2023-04-24T08:17:44;6.35;;;5.15;;
18104;SDS011;9179;50.968;3.134;2023-04-24T08:20:11;6.70;;;5.40;;
18104;SDS011;9179;50.968;3.134;2023-04-24T08:22:39;6.22;;;5.18;;
18104;SDS011;9179;50.968;3.134;2023-04-24T08:25:07;8.60;;;5.90;;
18104;SDS011;9179;50.968;3.134;2023-04-24T08:27:34;6.15;;;5.60;;
18104;SDS011;9179;50.968;3.134;2023-04-24T08:30:03;6.75;;;6.05;;
18104;SDS011;9179;50.968;3.134;2023-04-24T08:32:33;7.45;;;6.18;;
18104;SDS011;9179;50.968;3.134;2023-04-24T08:35:00;6.88;;;6.05;;
18104;SDS011;9179;50.968;3.134;2023-04-24T08:37:27;9.20;;;7.00;;
18104;SDS011;9179;50.968;3.134;2023-04-24T08:39:54;7.35;;;6.63;;
18104;SDS011;9179;50.968;3.134;2023-04-24T08:42:21;9.73;;;7.00;;
18104;SDS011;9179;50.968;3.134;2023-04-24T08:44:49;7.45;;;6.60;;
18104;SDS011;9179;50.968;3.134;2023-04-24T08:47:16;8.70;;;7.57;;
18104;SDS011;9179;50.968;3.134;2023-04-24T08:49:46;9.50;;;7.70;;
18104;SDS011;9179;50.968;3.134;2023-04-24T08:52:15;11.85;;;7.95;;
18104;SDS011;9179;50.968;3.134;2023-04-24T08:54:42;11.30;;;8.38;;
18104;SDS011;9179;50.968;3.134;2023-04-24T08:57:11;7.53;;;6.80;;
18104;SDS011;9179;50.968;3.134;2023-04-24T08:59:39;11.13;;;7.45;;
18104;SDS011;9179;50.968;3.134;2023-04-24T09:02:07;7.40;;;6.70;;
18104;SDS011;9179;50.968;3.134;2023-04-24T09:04:37;7.47;;;6.78;;
18104;SDS011;9179;50.968;3.134;2023-04-24T09:07:06;9.18;;;7.05;;
18104;SDS011;9179;50.968;3.134;2023-04-24T09:09:35;7.88;;;7.15;;
18104;SDS011;9179;50.968;3.134;2023-04-24T09:12:04;7.68;;;6.68;;
18104;SDS011;9179;50.968;3.134;2023-04-24T09:14:32;7.90;;;7.00;;
18104;SDS011;9179;50.968;3.134;2023-04-24T09:17:01;6.60;;;5.95;;
18104;SDS011;9179;50.968;3.134;2023-04-24T09:19:28;7.45;;;5.90;;
18104;SDS011;9179;50.968;3.134;2023-04-24T09:21:55;6.82;;;6.18;;
18104;SDS011;9179;50.968;3.134;2023-04-24T09:24:23;9.32;;;5.65;;
18104;SDS011;9179;50.968;3.134;2023-04-24T09:26:55;9.02;;;6.20;;
18104;SDS011;9179;50.968;3.134;2023-04-24T09:29:24;7.78;;;7.00;;
18104;SDS011;9179;50.968;3.134;2023-04-24T09:31:51;7.47;;;6.63;;
18104;SDS011;9179;50.968;3.134;2023-04-24T09:34:20;8.73;;;6.97;;
18104;SDS011;9179;50.968;3.134;2023-04-24T09:36:48;7.70;;;6.95;;
18104;SDS011;9179;50.968;3.134;2023-04-24T09:39:16;7.18;;;6.47;;
18104;SDS011;9179;50.968;3.134;2023-04-24T09:41:47;9.70;;;7.57;;
18104;SDS011;9179;50.968;3.134;2023-04-24T09:44:15;8.40;;;6.72;;
18104;SDS011;9179;50.968;3.134;2023-04-24T09:46:46;9.82;;;7.78;;
18104;SDS011;9179;50.968;3.134;2023-04-24T09:49:16;10.40;;;7.50;;
18104;SDS011;9179;50.968;3.134;2023-04-24T09:51:48;7.13;;;6.53;;
18104;SDS011;9179;50.968;3.134;2023-04-24T09:54:15;9.70;;;7.20;;
18104;SDS011;9179;50.968;3.134;2023-04-24T09:56:44;9.48;;;6.90;;
18104;SDS011;9179;50.968;3.134;2023-04-24T09:59:13;8.90;;;8.10;;
18104;SDS011;9179;50.968;3.134;2023-04-24T10:01:41;8.18;;;6.40;;
18104;SDS011;9179;50.968;3.134;2023-04-24T10:04:16;7.82;;;6.38;;
18104;SDS011;9179;50.968;3.134;2023-04-24T10:06:44;8.15;;;5.78;;
18104;SDS011;9179;50.968;3.134;2023-04-24T10:09:12;7.70;;;6.35;;
18104;SDS011;9179;50.968;3.134;2023-04-24T10:11:43;9.45;;;6.70;;
18104;SDS011;9179;50.968;3.134;2023-04-24T10:14:14;9.23;;;6.72;;
18104;SDS011;9179;50.968;3.134;2023-04-24T10:16:42;5.60;;;5.10;;
18104;SDS011;9179;50.968;3.134;2023-04-24T10:19:12;6.45;;;5.88;;
18104;SDS011;9179;50.968;3.134;2023-04-24T10:21:40;15.30;;;6.13;;
18104;SDS011;9179;50.968;3.134;2023-04-24T10:24:11;6.03;;;5.43;;
18104;SDS011;9179;50.968;3.134;2023-04-24T10:26:40;6.82;;;6.13;;
18104;SDS011;9179;50.968;3.134;2023-04-24T10:29:07;8.45;;;5.85;;
18104;SDS011;9179;50.968;3.134;2023-04-24T10:31:38;8.75;;;5.47;;
18104;SDS011;9179;50.968;3.134;2023-04-24T10:34:05;6.70;;;5.88;;
18104;SDS011;9179;50.968;3.134;2023-04-24T10:36:34;7.07;;;5.57;;
18104;SDS011;9179;50.968;3.134;2023-04-24T10:39:05;7.68;;;6.00;;
18104;SDS011;9179;50.968;3.134;2023-04-24T10:41:36;5.55;;;5.10;;
18104;SDS011;9179;50.968;3.134;2023-04-24T10:44:04;6.28;;;5.68;;
18104;SDS011;9179;50.968;3.134;2023-04-24T10:46:32;6.15;;;4.55;;
18104;SDS011;9179;50.968;3.134;2023-04-24T10:49:01;5.65;;;4.63;;
18104;SDS011;9179;50.968;3.134;2023-04-24T10:51:44;4.80;;;4.35;;
18104;SDS011;9179;50.968;3.134;2023-04-24T10:54:22;6.72;;;4.20;;
18104;SDS011;9179;50.968;3.134;2023-04-24T10:56:50;5.40;;;4.43;;
18104;SDS011;9179;50.968;3.134;2023-04-24T10:59:24;5.10;;;4.30;;
18104;SDS011;9179;50.968;3.134;2023-04-24T11:01:52;6.25;;;4.00;;
18104;SDS011;9179;50.968;3.134;2023-04-24T11:04:30;6.47;;;4.35;;
18104;SDS011;9179;50.968;3.134;2023-04-24T11:06:58;5.22;;;3.63;;
18104;SDS011;9179;50.968;3.134;2023-04-24T11:09:26;4.25;;;3.88;;
18104;SDS011;9179;50.968;3.134;2023-04-24T11:12:02;4.28;;;3.78;;
18104;SDS011;9179;50.968;3.134;2023-04-24T11:14:37;6.80;;;4.85;;
18104;SDS011;9179;50.968;3.134;2023-04-24T11:17:30;5.88;;;4.35;;
18104;SDS011;9179;50.968;3.134;2023-04-24T11:20:07;4.20;;;3.70;;
18104;SDS011;9179;50.968;3.134;2023-04-24T11:22:48;3.83;;;3.30;;
18104;SDS011;9179;50.968;3.134;2023-04-24T11:25:20;3.65;;;3.17;;
18104;SDS011;9179;50.968;3.134;2023-04-24T11:27:48;5.40;;;3.60;;
18104;SDS011;9179;50.968;3.134;2023-04-24T11:30:17;3.15;;;2.95;;
18104;SDS011;9179;50.968;3.134;2023-04-24T11:32:47;3.83;;;3.00;;
18104;SDS011;9179;50.968;3.134;2023-04-24T11:35:16;4.70;;;3.38;;
18104;SDS011;9179;50.968;3.134;2023-04-24T11:37:45;3.80;;;3.35;;
18104;SDS011;9179;50.968;3.134;2023-04-24T11:40:14;3.17;;;2.97;;
18104;SDS011;9179;50.968;3.134;2023-04-24T11:42:43;4.72;;;3.35;;
18104;SDS011;9179;50.968;3.134;2023-04-24T11:45:11;4.03;;;3.30;;
18104;SDS011;9179;50.968;3.134;2023-04-24T11:47:39;6.25;;;3.67;;
18104;SDS011;9179;50.968;3.134;2023-04-24T11:50:07;4.18;;;3.22;;
18104;SDS011;9179;50.968;3.134;2023-04-24T11:52:38;3.95;;;3.38;;
18104;SDS011;9179;50.968;3.134;2023-04-24T11:55:07;4.97;;;3.08;;
18104;SDS011;9179;50.968;3.134;2023-04-24T11:57:51;4.38;;;3.45;;
18104;SDS011;9179;50.968;3.134;2023-04-24T12:00:21;3.25;;;3.05;;
18104;SDS011;9179;50.968;3.134;2023-04-24T12:02:49;5.30;;;3.05;;
18104;SDS011;9179;50.968;3.134;2023-04-24T12:05:20;3.63;;;3.33;;
18104;SDS011;9179;50.968;3.134;2023-04-24T12:07:49;4.32;;;3.15;;
18104;SDS011;9179;50.968;3.134;2023-04-24T12:10:19;3.95;;;3.42;;
18104;SDS011;9179;50.968;3.134;2023-04-24T12:12:47;4.88;;;3.80;;
18104;SDS011;9179;50.968;3.134;2023-04-24T12:15:15;4.05;;;3.08;;
18104;SDS011;9179;50.968;3.134;2023-04-24T12:17:43;2.75;;;2.55;;
18104;SDS011;9179;50.968;3.134;2023-04-24T12:20:11;4.20;;;3.75;;
18104;SDS011;9179;50.968;3.134;2023-04-24T12:22:45;4.95;;;2.58;;
18104;SDS011;9179;50.968;3.134;2023-04-24T12:25:15;3.45;;;2.28;;
18104;SDS011;9179;50.968;3.134;2023-04-24T12:27:43;4.15;;;2.47;;
18104;SDS011;9179;50.968;3.134;2023-04-24T12:30:11;3.35;;;2.70;;
18104;SDS011;9179;50.968;3.134;2023-04-24T12:32:42;4.07;;;2.75;;
18104;SDS011;9179;50.968;3.134;2023-04-24T12:35:10;3.80;;;2.72;;
18104;SDS011;9179;50.968;3.134;2023-04-24T12:37:42;3.58;;;2.60;;
18104;SDS011;9179;50.968;3.134;2023-04-24T12:40:10;2.97;;;2.78;;
18104;SDS011;9179;50.968;3.134;2023-04-24T12:42:43;3.17;;;2.65;;
18104;SDS011;9179;50.968;3.134;2023-04-24T12:45:11;3.00;;;2.75;;
18104;SDS011;9179;50.968;3.134;2023-04-24T12:47:39;3.38;;;3.03;;
18104;SDS011;9179;50.968;3.134;2023-04-24T12:50:07;4.47;;;3.03;;
18104;SDS011;9179;50.968;3.134;2023-04-24T12:52:35;2.60;;;2.33;;
18104;SDS011;9179;50.968;3.134;2023-04-24T12:55:03;3.60;;;2.78;;
18104;SDS011;9179;50.968;3.134;2023-04-24T12:57:33;3.05;;;2.75;;
18104;SDS011;9179;50.968;3.134;2023-04-24T13:00:03;2.45;;;2.25;;
18104;SDS011;9179;50.968;3.134;2023-04-24T13:02:32;3.15;;;2.60;;
18104;SDS011;9179;50.968;3.134;2023-04-24T13:05:00;3.38;;;1.90;;
18104;SDS011;9179;50.968;3.134;2023-04-24T13:07:28;3.22;;;2.25;;
18104;SDS011;9179;50.968;3.134;2023-04-24T13:09:55;2.90;;;2.08;;
18104;SDS011;9179;50.968;3.134;2023-04-24T13:12:22;2.90;;;2.25;;
18104;SDS011;9179;50.968;3.134;2023-04-24T13:14:50;2.65;;;2.10;;
18104;SDS011;9179;50.968;3.134;2023-04-24T13:17:19;2.22;;;1.98;;
18104;SDS011;9179;50.968;3.134;2023-04-24T13:19:46;2.08;;;1.90;;
18104;SDS011;9179;50.968;3.134;2023-04-24T13:22:13;2.17;;;1.95;;
18104;SDS011;9179;50.968;3.134;2023-04-24T13:24:40;2.20;;;1.85;;
18104;SDS011;9179;50.968;3.134;2023-04-24T13:27:07;2.03;;;1.92;;
18104;SDS011;9179;50.968;3.134;2023-04-24T13:29:34;1.90;;;1.80;;
18104;SDS011;9179;50.968;3.134;2023-04-24T13:32:01;3.88;;;2.58;;
18104;SDS011;9179;50.968;3.134;2023-04-24T13:34:29;3.30;;;2.22;;
18104;SDS011;9179;50.968;3.134;2023-04-24T13:36:57;2.35;;;2.10;;
18104;SDS011;9179;50.968;3.134;2023-04-24T13:39:24;1.77;;;1.67;;
18104;SDS011;9179;50.968;3.134;2023-04-24T13:41:52;1.98;;;1.83;;
18104;SDS011;9179;50.968;3.134;2023-04-24T13:44:21;2.00;;;1.90;;
18104;SDS011;9179;50.968;3.134;2023-04-24T13:46:50;2.42;;;2.10;;
18104;SDS011;9179;50.968;3.134;2023-04-24T13:49:19;2.47;;;2.03;;
18104;SDS011;9179;50.968;3.134;2023-04-24T13:51:48;3.05;;;1.85;;
18104;SDS011;9179;50.968;3.134;2023-04-24T13:54:15;2.38;;;2.10;;
18104;SDS011;9179;50.968;3.134;2023-04-24T13:56:42;2.25;;;2.05;;
18104;SDS011;9179;50.968;3.134;2023-04-24T13:59:09;2.47;;;2.13;;
18104;SDS011;9179;50.968;3.134;2023-04-24T14:01:37;2.60;;;2.40;;
18104;SDS011;9179;50.968;3.134;2023-04-24T14:04:04;2.88;;;2.65;;
18104;SDS011;9179;50.968;3.134;2023-04-24T14:06:31;4.80;;;2.67;;
18104;SDS011;9179;50.968;3.134;2023-04-24T14:09:00;3.30;;;2.50;;
18104;SDS011;9179;50.968;3.134;2023-04-24T14:11:28;3.33;;;2.67;;
18104;SDS011;9179;50.968;3.134;2023-04-24T14:13:55;2.40;;;2.20;;
18104;SDS011;9179;50.968;3.134;2023-04-24T14:16:22;5.25;;;2.25;;
18104;SDS011;9179;50.968;3.134;2023-04-24T14:18:49;2.90;;;2.67;;
18104;SDS011;9179;50.968;3.134;2023-04-24T14:21:16;2.35;;;2.15;;
18104;SDS011;9179;50.968;3.134;2023-04-24T14:23:43;4.20;;;2.35;;
18104;SDS011;9179;50.968;3.134;2023-04-24T14:26:12;4.80;;;3.25;;
18104;SDS011;9179;50.968;3.134;2023-04-24T14:28:39;3.20;;;2.15;;
18104;SDS011;9179;50.968;3.134;2023-04-24T14:31:06;2.55;;;2.35;;
18104;SDS011;9179;50.968;3.134;2023-04-24T14:33:34;5.28;;;2.60;;
18104;SDS011;9179;50.968;3.134;2023-04-24T14:36:01;2.40;;;2.17;;
18104;SDS011;9179;50.968;3.134;2023-04-24T14:38:30;2.47;;;2.28;;
18104;SDS011;9179;50.968;3.134;2023-04-24T14:40:57;2.55;;;2.35;;
18104;SDS011;9179;50.968;3.134;2023-04-24T14:43:26;2.40;;;2.25;;
18104;SDS011;9179;50.968;3.134;2023-04-24T14:45:53;2.22;;;2.10;;
18104;SDS011;9179;50.968;3.134;2023-04-24T14:48:20;5.00;;;2.10;;
18104;SDS011;9179;50.968;3.134;2023-04-24T14:50:47;2.60;;;2.00;;
18104;SDS011;9179;50.968;3.134;2023-04-24T14:53:14;3.05;;;2.20;;
18104;SDS011;9179;50.968;3.134;2023-04-24T14:55:41;2.38;;;2.03;;
18104;SDS011;9179;50.968;3.134;2023-04-24T14:58:08;4.30;;;2.15;;